createdAt,value
2019-06-10T00:02:10.908Z,7.85
2019-06-10T00:04:43.471Z,7.95
2019-06-10T00:07:16.715Z,7.58
2019-06-10T00:09:51.150Z,7.30
2019-06-10T00:12:24.217Z,8.45
2019-06-10T00:14:58.656Z,8.43
2019-06-10T00:17:31.889Z,8.03
2019-06-10T00:20:08.361Z,7.90
2019-06-10T00:22:42.735Z,8.33
2019-06-10T00:25:15.829Z,8.13
2019-06-10T00:27:51.071Z,8.18
2019-06-10T00:30:23.844Z,8.83
2019-06-10T00:32:58.509Z,8.58
2019-06-10T00:35:31.573Z,8.23
2019-06-10T00:38:07.259Z,7.35
2019-06-10T00:40:41.637Z,8.48
2019-06-10T00:43:13.727Z,8.23
2019-06-10T00:45:47.924Z,9.13
2019-06-10T00:48:26.179Z,8.83
2019-06-10T00:50:56.294Z,7.97
2019-06-10T00:53:31.630Z,7.80
2019-06-10T00:56:05.632Z,8.03
2019-06-10T00:58:40.816Z,7.85
2019-06-10T01:01:14.739Z,8.68
2019-06-10T01:03:47.748Z,9.20
2019-06-10T01:06:21.539Z,8.75
2019-06-10T01:08:55.679Z,8.45
2019-06-10T01:11:31.036Z,8.88
2019-06-10T01:14:03.413Z,10.08
2019-06-10T01:16:36.720Z,11.60
2019-06-10T01:19:12.444Z,9.83
2019-06-10T01:21:44.690Z,9.18
2019-06-10T01:24:18.192Z,9.20
2019-06-10T01:26:51.535Z,9.23
2019-06-10T01:29:24.813Z,9.98
2019-06-10T01:31:58.128Z,10.75
2019-06-10T01:34:31.407Z,10.93
2019-06-10T01:37:04.724Z,10.32
2019-06-10T01:39:37.989Z,10.82
2019-06-10T01:42:12.822Z,10.30
2019-06-10T01:44:46.220Z,10.25
2019-06-10T01:47:21.577Z,10.85
2019-06-10T01:49:54.567Z,10.98
2019-06-10T01:52:27.880Z,9.90
2019-06-10T01:55:01.653Z,9.75
2019-06-10T01:57:34.935Z,9.85
2019-06-10T02:00:09.930Z,10.43
2019-06-10T02:02:44.898Z,10.50
2019-06-10T02:05:19.423Z,10.75
2019-06-10T02:07:52.766Z,9.30
2019-06-10T02:10:26.029Z,10.23
2019-06-10T02:13:01.280Z,10.00
2019-06-10T02:15:33.664Z,10.10
2019-06-10T02:18:06.961Z,9.85
2019-06-10T02:20:41.246Z,9.50
2019-06-10T02:23:15.522Z,9.78
2019-06-10T02:25:51.175Z,10.18
2019-06-10T02:28:24.244Z,9.28
2019-06-10T02:30:57.517Z,10.32
2019-06-10T02:33:36.057Z,9.73
2019-06-10T02:36:05.201Z,11.08
2019-06-10T02:38:39.829Z,9.88
2019-06-10T02:41:17.457Z,10.25
2019-06-10T02:43:47.791Z,9.83
2019-06-10T02:46:28.486Z,9.25
2019-06-10T02:48:55.714Z,9.93
2019-06-10T02:51:31.452Z,9.50
2019-06-10T02:54:04.755Z,9.23
2019-06-10T02:56:37.874Z,9.55
2019-06-10T02:59:13.226Z,9.68
2019-06-10T03:01:45.841Z,9.13
2019-06-10T03:04:22.193Z,10.28
2019-06-10T03:06:54.426Z,8.85
2019-06-10T03:09:31.913Z,9.68
2019-06-10T03:12:04.616Z,9.23
2019-06-10T03:14:36.412Z,9.53
2019-06-10T03:17:12.464Z,9.28
2019-06-10T03:19:50.338Z,9.63
2019-06-10T03:22:22.587Z,8.88
2019-06-10T03:24:54.541Z,8.73
2019-06-10T03:27:28.075Z,8.58
2019-06-10T03:30:04.818Z,7.58
2019-06-10T03:32:40.974Z,7.50
2019-06-10T03:35:12.987Z,7.58
2019-06-10T03:37:45.810Z,7.55
2019-06-10T03:40:19.142Z,6.92
2019-06-10T03:42:52.521Z,6.40
2019-06-10T03:45:27.196Z,6.95
2019-06-10T03:48:00.121Z,5.65
2019-06-10T03:50:33.437Z,5.83
2019-06-10T03:53:06.710Z,5.45
2019-06-10T03:55:42.236Z,5.28
2019-06-10T03:58:14.383Z,5.30
2019-06-10T04:00:47.750Z,5.12
2019-06-10T04:03:23.810Z,4.90
